sensor_id;sensor_type;location;lat;lon;timestamp;temperature;humidity
6954;DHT22;3516;47.980;8.808;2023-02-07T00:05:36;-3.40;99.90
6954;DHT22;3516;47.980;8.808;2023-02-07T00:08:03;-3.40;99.90
6954;DHT22;3516;47.980;8.808;2023-02-07T00:10:30;-3.40;99.90
6954;DHT22;3516;47.980;8.808;2023-02-07T00:12:57;-3.40;99.90
6954;DHT22;3516;47.980;8.808;2023-02-07T00:15:24;-3.40;99.90
6954;DHT22;3516;47.980;8.808;2023-02-07T00:17:51;-3.40;99.90
6954;DHT22;3516;47.980;8.808;2023-02-07T00:20:18;-3.40;99.90
6954;DHT22;3516;47.980;8.808;2023-02-07T00:22:46;-3.50;99.90
6954;DHT22;3516;47.980;8.808;2023-02-07T00:25:13;-3.50;99.90
6954;DHT22;3516;47.980;8.808;2023-02-07T00:27:40;-3.50;99.90
6954;DHT22;3516;47.980;8.808;2023-02-07T00:30:07;-3.50;99.90
6954;DHT22;3516;47.980;8.808;2023-02-07T00:32:34;-3.60;99.90
6954;DHT22;3516;47.980;8.808;2023-02-07T00:35:01;-3.50;99.90
6954;DHT22;3516;47.980;8.808;2023-02-07T00:37:28;-3.50;99.90
6954;DHT22;3516;47.980;8.808;2023-02-07T00:39:56;-3.50;99.90
6954;DHT22;3516;47.980;8.808;2023-02-07T00:42:23;-3.50;99.90
6954;DHT22;3516;47.980;8.808;2023-02-07T00:44:49;-3.50;99.90
6954;DHT22;3516;47.980;8.808;2023-02-07T00:47:16;-3.50;99.90
6954;DHT22;3516;47.980;8.808;2023-02-07T00:49:43;-3.50;99.90
6954;DHT22;3516;47.980;8.808;2023-02-07T00:52:09;-3.40;99.90
6954;DHT22;3516;47.980;8.808;2023-02-07T00:54:36;-3.40;99.90
6954;DHT22;3516;47.980;8.808;2023-02-07T00:57:04;-3.40;99.90
6954;DHT22;3516;47.980;8.808;2023-02-07T00:59:31;-3.50;99.90
6954;DHT22;3516;47.980;8.808;2023-02-07T01:01:57;-3.40;99.90
6954;DHT22;3516;47.980;8.808;2023-02-07T01:04:24;-3.40;99.90
6954;DHT22;3516;47.980;8.808;2023-02-07T01:06:51;-3.50;99.90
6954;DHT22;3516;47.980;8.808;2023-02-07T01:09:17;-3.50;99.90
6954;DHT22;3516;47.980;8.808;2023-02-07T01:11:44;-3.50;99.90
6954;DHT22;3516;47.980;8.808;2023-02-07T01:14:12;-3.50;99.90
6954;DHT22;3516;47.980;8.808;2023-02-07T01:16:39;-3.50;99.90
6954;DHT22;3516;47.980;8.808;2023-02-07T01:19:07;-3.60;99.90
6954;DHT22;3516;47.980;8.808;2023-02-07T01:21:33;-3.50;99.90
6954;DHT22;3516;47.980;8.808;2023-02-07T01:24:00;-3.60;99.90
6954;DHT22;3516;47.980;8.808;2023-02-07T04:56:18;-4.50;99.90
6954;DHT22;3516;47.980;8.808;2023-02-07T04:58:45;-4.40;99.90
6954;DHT22;3516;47.980;8.808;2023-02-07T05:01:12;-4.40;99.90
6954;DHT22;3516;47.980;8.808;2023-02-07T05:03:38;-4.40;99.90
6954;DHT22;3516;47.980;8.808;2023-02-07T05:06:06;-4.40;99.90
6954;DHT22;3516;47.980;8.808;2023-02-07T05:08:34;-4.50;99.90
6954;DHT22;3516;47.980;8.808;2023-02-07T05:11:01;-4.50;99.90
6954;DHT22;3516;47.980;8.808;2023-02-07T05:13:29;-4.60;99.90
6954;DHT22;3516;47.980;8.808;2023-02-07T05:15:55;-4.70;99.90
6954;DHT22;3516;47.980;8.808;2023-02-07T05:18:22;-4.70;99.90
6954;DHT22;3516;47.980;8.808;2023-02-07T05:20:51;-4.70;99.90
6954;DHT22;3516;47.980;8.808;2023-02-07T05:23:18;-4.80;99.90
6954;DHT22;3516;47.980;8.808;2023-02-07T05:25:46;-4.80;99.90
6954;DHT22;3516;47.980;8.808;2023-02-07T05:28:14;-4.80;99.90
6954;DHT22;3516;47.980;8.808;2023-02-07T05:30:42;-4.80;99.90
6954;DHT22;3516;47.980;8.808;2023-02-07T05:33:09;-4.80;99.90
6954;DHT22;3516;47.980;8.808;2023-02-07T05:35:36;-4.70;99.90
6954;DHT22;3516;47.980;8.808;2023-02-07T05:38:04;-4.70;99.90
6954;DHT22;3516;47.980;8.808;2023-02-07T05:40:32;-4.80;99.90
6954;DHT22;3516;47.980;8.808;2023-02-07T05:42:58;-4.90;99.90
6954;DHT22;3516;47.980;8.808;2023-02-07T05:45:25;-4.90;99.90
6954;DHT22;3516;47.980;8.808;2023-02-07T05:47:53;-4.90;99.90
6954;DHT22;3516;47.980;8.808;2023-02-07T05:50:20;-5.00;99.90
6954;DHT22;3516;47.980;8.808;2023-02-07T05:52:47;-5.00;99.90
6954;DHT22;3516;47.980;8.808;2023-02-07T05:55:14;-5.00;99.90
6954;DHT22;3516;47.980;8.808;2023-02-07T05:57:41;-5.10;99.90
6954;DHT22;3516;47.980;8.808;2023-02-07T06:00:09;-5.10;99.90
6954;DHT22;3516;47.980;8.808;2023-02-07T06:02:37;-5.00;99.90
6954;DHT22;3516;47.980;8.808;2023-02-07T06:05:06;-5.00;99.90
6954;DHT22;3516;47.980;8.808;2023-02-07T06:07:33;-4.90;99.90
6954;DHT22;3516;47.980;8.808;2023-02-07T06:10:00;-4.90;99.90
6954;DHT22;3516;47.980;8.808;2023-02-07T06:12:27;-4.90;99.90
6954;DHT22;3516;47.980;8.808;2023-02-07T06:14:54;-4.90;99.90
6954;DHT22;3516;47.980;8.808;2023-02-07T06:17:20;-4.90;99.90
6954;DHT22;3516;47.980;8.808;2023-02-07T14:24:29;1.50;57.90
6954;DHT22;3516;47.980;8.808;2023-02-07T14:27:03;1.40;52.50
6954;DHT22;3516;47.980;8.808;2023-02-07T14:32:44;1.40;53.40
6954;DHT22;3516;47.980;8.808;2023-02-07T14:35:34;1.30;55.30
6954;DHT22;3516;47.980;8.808;2023-02-07T14:38:32;1.20;57.10
6954;DHT22;3516;47.980;8.808;2023-02-07T14:41:05;1.20;57.20
6954;DHT22;3516;47.980;8.808;2023-02-07T14:43:39;1.20;57.90
6954;DHT22;3516;47.980;8.808;2023-02-07T14:46:11;1.20;55.70
6954;DHT22;3516;47.980;8.808;2023-02-07T14:48:48;1.20;55.20
6954;DHT22;3516;47.980;8.808;2023-02-07T14:51:19;1.20;56.00
6954;DHT22;3516;47.980;8.808;2023-02-07T14:53:57;1.20;55.80
6954;DHT22;3516;47.980;8.808;2023-02-07T14:56:36;1.20;55.90
6954;DHT22;3516;47.980;8.808;2023-02-07T14:59:07;1.20;56.50
6954;DHT22;3516;47.980;8.808;2023-02-07T15:01:36;1.20;57.30
6954;DHT22;3516;47.980;8.808;2023-02-07T15:04:05;1.00;64.40
6954;DHT22;3516;47.980;8.808;2023-02-07T15:06:36;1.00;66.70
6954;DHT22;3516;47.980;8.808;2023-02-07T15:09:04;1.00;62.30
6954;DHT22;3516;47.980;8.808;2023-02-07T15:11:31;1.00;67.30
6954;DHT22;3516;47.980;8.808;2023-02-07T15:14:00;0.80;77.90
6954;DHT22;3516;47.980;8.808;2023-02-07T15:16:30;0.80;83.00
6954;DHT22;3516;47.980;8.808;2023-02-07T15:19:01;0.60;95.60
6954;DHT22;3516;47.980;8.808;2023-02-07T15:21:33;0.50;98.50
6954;DHT22;3516;47.980;8.808;2023-02-07T15:24:03;0.40;99.90
6954;DHT22;3516;47.980;8.808;2023-02-07T15:26:31;0.30;99.90
6954;DHT22;3516;47.980;8.808;2023-02-07T15:28:59;0.30;99.90
6954;DHT22;3516;47.980;8.808;2023-02-07T15:31:27;0.30;99.90
6954;DHT22;3516;47.980;8.808;2023-02-07T15:33:55;0.20;99.90
6954;DHT22;3516;47.980;8.808;2023-02-07T15:36:30;0.10;99.90
6954;DHT22;3516;47.980;8.808;2023-02-07T15:38:59;0.10;99.90
6954;DHT22;3516;47.980;8.808;2023-02-07T15:41:26;0.10;99.90
6954;DHT22;3516;47.980;8.808;2023-02-07T15:43:58;0.30;97.20
6954;DHT22;3516;47.980;8.808;2023-02-07T15:46:26;0.30;96.00
6954;DHT22;3516;47.980;8.808;2023-02-07T15:48:54;0.30;94.90
6954;DHT22;3516;47.980;8.808;2023-02-07T15:51:24;0.30;94.50
6954;DHT22;3516;47.980;8.808;2023-02-07T15:53:56;0.30;91.30
6954;DHT22;3516;47.980;8.808;2023-02-07T15:56:24;0.40;88.60
6954;DHT22;3516;47.980;8.808;2023-02-07T15:58:56;0.40;83.20
6954;DHT22;3516;47.980;8.808;2023-02-07T16:01:25;0.30;84.50
6954;DHT22;3516;47.980;8.808;2023-02-07T16:03:55;0.30;78.40
6954;DHT22;3516;47.980;8.808;2023-02-07T16:06:24;0.30;81.80
6954;DHT22;3516;47.980;8.808;2023-02-07T16:08:52;0.10;87.80
6954;DHT22;3516;47.980;8.808;2023-02-07T16:11:37;0.00;93.80
6954;DHT22;3516;47.980;8.808;2023-02-07T16:14:14;-0.10;94.70
6954;DHT22;3516;47.980;8.808;2023-02-07T16:16:47;0.00;95.00
6954;DHT22;3516;47.980;8.808;2023-02-07T16:19:17;-0.10;98.90
6954;DHT22;3516;47.980;8.808;2023-02-07T16:21:45;-0.20;99.90
6954;DHT22;3516;47.980;8.808;2023-02-07T16:24:17;-0.30;99.90
6954;DHT22;3516;47.980;8.808;2023-02-07T16:26:47;-0.30;99.90
6954;DHT22;3516;47.980;8.808;2023-02-07T16:29:17;-0.30;99.90
6954;DHT22;3516;47.980;8.808;2023-02-07T16:31:44;-0.40;99.90
6954;DHT22;3516;47.980;8.808;2023-02-07T16:34:12;-0.50;99.90
6954;DHT22;3516;47.980;8.808;2023-02-07T16:36:39;-0.50;99.90
6954;DHT22;3516;47.980;8.808;2023-02-07T16:39:06;-0.70;99.90
6954;DHT22;3516;47.980;8.808;2023-02-07T16:41:35;-0.70;99.90
6954;DHT22;3516;47.980;8.808;2023-02-07T16:44:06;-0.80;99.90
6954;DHT22;3516;47.980;8.808;2023-02-07T16:46:36;-0.90;99.90
6954;DHT22;3516;47.980;8.808;2023-02-07T16:49:08;-1.00;99.90
6954;DHT22;3516;47.980;8.808;2023-02-07T16:51:35;-1.10;99.90
6954;DHT22;3516;47.980;8.808;2023-02-07T16:54:02;-1.20;99.90
6954;DHT22;3516;47.980;8.808;2023-02-07T16:56:29;-1.30;99.90
6954;DHT22;3516;47.980;8.808;2023-02-07T16:58:55;-1.50;99.90
6954;DHT22;3516;47.980;8.808;2023-02-07T17:01:23;-1.60;99.90
6954;DHT22;3516;47.980;8.808;2023-02-07T17:03:50;-1.70;99.90
6954;DHT22;3516;47.980;8.808;2023-02-07T17:06:19;-1.80;99.90
6954;DHT22;3516;47.980;8.808;2023-02-07T17:08:47;-1.80;99.90
6954;DHT22;3516;47.980;8.808;2023-02-07T17:11:16;-1.80;99.90
6954;DHT22;3516;47.980;8.808;2023-02-07T17:13:45;-1.90;99.90
6954;DHT22;3516;47.980;8.808;2023-02-07T17:16:12;-1.90;99.90
6954;DHT22;3516;47.980;8.808;2023-02-07T17:18:40;-1.90;99.90
6954;DHT22;3516;47.980;8.808;2023-02-07T17:21:07;-2.00;99.90
6954;DHT22;3516;47.980;8.808;2023-02-07T17:23:36;-2.00;99.90
6954;DHT22;3516;47.980;8.808;2023-02-07T17:26:04;-2.00;99.90
6954;DHT22;3516;47.980;8.808;2023-02-07T17:28:31;-2.00;99.90
6954;DHT22;3516;47.980;8.808;2023-02-07T17:30:58;-2.10;99.90
6954;DHT22;3516;47.980;8.808;2023-02-07T17:33:24;-2.10;99.90
6954;DHT22;3516;47.980;8.808;2023-02-07T17:35:53;-2.10;99.90
6954;DHT22;3516;47.980;8.808;2023-02-07T17:38:19;-2.10;99.90
6954;DHT22;3516;47.980;8.808;2023-02-07T17:40:46;-2.10;99.90
6954;DHT22;3516;47.980;8.808;2023-02-07T17:43:13;-2.10;99.90
6954;DHT22;3516;47.980;8.808;2023-02-07T17:45:39;-2.20;99.90
6954;DHT22;3516;47.980;8.808;2023-02-07T17:48:08;-2.30;99.90
6954;DHT22;3516;47.980;8.808;2023-02-07T17:50:37;-2.30;99.90
6954;DHT22;3516;47.980;8.808;2023-02-07T17:53:07;-2.30;99.90
6954;DHT22;3516;47.980;8.808;2023-02-07T17:55:34;-2.30;99.90
